Terminal Aerodrome Forecast
Issued by NWS Billings, MT

Home | Current Version | Previous Version | Text Only | Print | Product List | Glossary On
Versions: 1 2 3 4 5 6 7 8 9 10 11 12 13 14 15 16 17 18 19 20 21 22 23 24 25 26 27 28 29 30
000
FTUS45 KBYZ 291129
TAFBIL
TAF
KBIL 291129Z 2912/3012 19004KT P6SM FEW140 SCT230
     FM291600 18012KT P6SM BKN100
     FM300000 22010KT P6SM VCTS BKN100CB
     FM300300 25014KT P6SM VCSH BKN080=

USA.gov is the U.S. government's official web portal to all federal, state and local government web resources and services.